Time;durP1;ratioP1;P1;durP2;ratioP2;P2;SDS_P1;SDS_P2;PMS_P1;PMS_P2;Temp;Humidity;BMP_temperature;BMP_pressure;BME280_temperature;BME280_humidity;BME280_pressure;Samples;Min_cycle;Max_cycle;Signal;HPM_P1;HPM_P2
2023/08/04 00:01:25;;;;;;;4.70;2.15;;;16.60;1.00;;;;;;4967895;28;20578;-93
2023/08/04 00:03:52;;;;;;;4.20;2.20;;;16.50;1.00;;;;;;4961608;28;20200;-94
2023/08/04 00:06:19;;;;;;;5.45;2.40;;;16.50;1.00;;;;;;4957454;28;20219;-93
2023/08/04 00:08:47;;;;;;;5.18;2.53;;;16.50;1.00;;;;;;4972480;28;20235;-93
2023/08/04 00:11:14;;;;;;;5.95;2.25;;;16.50;1.00;;;;;;4978718;28;20726;-95
2023/08/04 00:13:41;;;;;;;5.50;2.15;;;16.50;1.00;;;;;;4978036;28;20683;-94
2023/08/04 00:16:09;;;;;;;3.95;2.42;;;16.50;1.00;;;;;;4978004;28;20222;-93
2023/08/04 00:18:36;;;;;;;3.00;2.03;;;16.50;1.00;;;;;;4980209;28;20207;-94
2023/08/04 00:21:04;;;;;;;3.03;2.17;;;16.50;1.00;;;;;;4977661;28;20211;-94
2023/08/04 00:23:31;;;;;;;3.88;2.33;;;16.50;1.00;;;;;;4976413;28;20267;-94
2023/08/04 00:25:59;;;;;;;5.40;2.70;;;16.50;1.00;;;;;;4982516;28;20278;-95
2023/08/04 00:28:26;;;;;;;4.15;2.50;;;16.40;1.00;;;;;;4983531;28;20577;-93
2023/08/04 00:30:52;;;;;;;2.78;2.03;;;16.40;1.00;;;;;;4976232;28;20293;-93
2023/08/04 00:33:19;;;;;;;3.38;2.60;;;16.40;1.00;;;;;;4978989;28;20211;-93
2023/08/04 00:35:46;;;;;;;3.50;2.30;;;16.40;1.00;;;;;;4980015;28;20230;-93
2023/08/04 00:38:13;;;;;;;4.15;2.40;;;16.40;1.00;;;;;;4976800;28;20214;-93
2023/08/04 00:40:40;;;;;;;4.45;2.40;;;16.40;25.50;;;;;;4984913;28;20569;-94
2023/08/04 00:43:08;;;;;;;2.50;2.20;;;16.40;47.30;;;;;;4977496;28;20206;-93
2023/08/04 00:45:36;;;;;;;4.22;2.30;;;16.40;80.60;;;;;;4977159;28;20578;-93
2023/08/04 00:48:03;;;;;;;17.10;2.47;;;16.40;27.30;;;;;;4976777;28;20200;-93
2023/08/04 00:50:32;;;;;;;7.72;2.50;;;16.40;1.00;;;;;;4990824;28;20257;-93
2023/08/04 00:53:00;;;;;;;6.65;2.20;;;16.40;1.00;;;;;;4975965;28;20208;-93
2023/08/04 00:55:27;;;;;;;8.02;2.58;;;16.30;1.00;;;;;;4973657;28;20223;-92
2023/08/04 00:57:57;;;;;;;9.85;2.20;;;16.30;1.00;;;;;;4978888;28;20209;-93
2023/08/04 01:00:25;;;;;;;5.72;2.38;;;16.30;1.00;;;;;;4980443;28;20213;-93
2023/08/04 01:02:52;;;;;;;3.35;2.30;;;16.30;1.00;;;;;;4980079;28;20240;-93
2023/08/04 01:05:19;;;;;;;4.05;2.30;;;16.30;1.00;;;;;;4975480;28;20649;-93
2023/08/04 01:07:52;;;;;;;4.25;2.20;;;16.30;1.00;;;;;;4985483;28;20203;-94
2023/08/04 01:10:25;;;;;;;2.90;2.47;;;16.30;1.00;;;;;;4976141;28;20207;-95
2023/08/04 01:12:57;;;;;;;5.22;2.55;;;16.30;1.00;;;;;;4975001;28;20211;-95
2023/08/04 01:15:26;;;;;;;6.20;2.10;;;16.30;1.00;;;;;;4978985;28;20205;-94
2023/08/04 01:17:55;;;;;;;4.32;2.22;;;16.40;91.70;;;;;;4972038;28;20198;-94
2023/08/04 01:20:22;;;;;;;3.72;2.10;;;16.60;43.70;;;;;;4986801;28;20256;-93
2023/08/04 01:22:50;;;;;;;3.80;2.22;;;16.60;1.00;;;;;;4975563;28;20277;-96
2023/08/04 01:25:17;;;;;;;3.08;2.00;;;16.70;1.00;;;;;;4968149;28;20202;-94
2023/08/04 01:27:49;;;;;;;2.97;2.53;;;16.80;1.00;;;;;;4974494;28;20279;-94
2023/08/04 01:30:19;;;;;;;4.15;2.05;;;16.70;1.00;;;;;;4977479;28;20300;-95
2023/08/04 01:32:46;;;;;;;6.40;1.90;;;16.80;1.00;;;;;;4977610;28;20222;-94
2023/08/04 01:35:14;;;;;;;2.70;1.98;;;16.80;1.00;;;;;;4981432;28;20672;-94
2023/08/04 01:37:43;;;;;;;6.38;2.30;;;17.00;1.00;;;;;;4981527;28;20222;-94
2023/08/04 01:40:12;;;;;;;2.47;2.13;;;17.10;1.00;;;;;;4979600;28;20199;-94
2023/08/04 01:42:39;;;;;;;3.72;2.10;;;17.20;1.00;;;;;;4974518;28;20577;-94
2023/08/04 01:45:07;;;;;;;2.50;1.85;;;17.20;99.90;;;;;;4976094;28;20202;-94
2023/08/04 01:47:34;;;;;;;6.32;1.67;;;17.30;99.90;;;;;;4977414;28;20201;-94
2023/08/04 01:50:02;;;;;;;1.85;1.55;;;17.40;99.90;;;;;;4970485;28;20206;-94
2023/08/04 01:52:29;;;;;;;2.45;1.85;;;17.50;99.90;;;;;;4976482;28;20223;-94
2023/08/04 01:54:57;;;;;;;2.42;1.60;;;17.50;99.90;;;;;;4976538;28;20203;-95
2023/08/04 01:57:25;;;;;;;1.88;1.75;;;17.60;99.90;;;;;;4979016;28;20221;-93
2023/08/04 01:59:52;;;;;;;3.88;1.83;;;17.60;84.20;;;;;;4979180;28;20208;-95
2023/08/04 02:02:19;;;;;;;3.63;1.80;;;17.60;1.00;;;;;;4984769;28;20198;-93
2023/08/04 02:04:46;;;;;;;3.67;1.75;;;17.70;1.00;;;;;;4972109;28;20631;-94
2023/08/04 02:07:13;;;;;;;2.67;1.60;;;17.70;1.00;;;;;;4977098;28;20195;-93
2023/08/04 02:09:39;;;;;;;3.45;1.80;;;17.70;1.00;;;;;;4976879;28;20238;-94
2023/08/04 02:12:07;;;;;;;1.75;1.60;;;17.70;1.00;;;;;;4981491;28;20199;-95
2023/08/04 02:14:35;;;;;;;3.80;1.60;;;17.80;1.00;;;;;;4976163;28;20208;-94
2023/08/04 02:17:02;;;;;;;2.40;1.70;;;17.70;1.00;;;;;;4982602;28;20220;-95
2023/08/04 02:19:29;;;;;;;3.70;1.77;;;17.70;1.00;;;;;;4981398;28;20269;-94
2023/08/04 02:21:56;;;;;;;1.98;1.45;;;17.70;1.00;;;;;;4976892;28;20214;-95
2023/08/04 02:24:22;;;;;;;2.55;1.50;;;17.60;1.00;;;;;;4971906;28;20594;-96
2023/08/04 02:26:50;;;;;;;6.10;1.50;;;17.60;1.00;;;;;;4977641;28;20204;-94
2023/08/04 02:29:17;;;;;;;1.60;1.50;;;17.60;1.00;;;;;;4975257;28;20290;-94
2023/08/04 02:31:45;;;;;;;3.25;1.75;;;17.60;99.90;;;;;;4979301;28;20263;-93
2023/08/04 02:34:11;;;;;;;3.70;1.60;;;17.60;99.90;;;;;;4976300;28;20657;-93
2023/08/04 02:36:38;;;;;;;2.55;1.50;;;17.60;99.90;;;;;;4971115;28;20219;-94
2023/08/04 02:39:05;;;;;;;4.10;1.42;;;17.50;99.90;;;;;;4977753;28;20211;-94
2023/08/04 02:41:33;;;;;;;3.58;1.80;;;17.50;99.90;;;;;;4985011;28;20203;-94
2023/08/04 02:44:02;;;;;;;1.73;1.45;;;17.50;99.90;;;;;;4975802;28;20203;-94
2023/08/04 02:46:29;;;;;;;4.93;1.63;;;17.60;99.90;;;;;;4972202;28;20251;-93
2023/08/04 02:48:57;;;;;;;2.70;1.55;;;17.60;99.90;;;;;;4976371;28;20263;-94
2023/08/04 02:51:24;;;;;;;4.22;1.48;;;17.60;99.90;;;;;;4979585;28;20634;-94
2023/08/04 02:53:51;;;;;;;2.63;1.70;;;17.60;99.90;;;;;;4978915;28;20290;-94
2023/08/04 02:56:18;;;;;;;2.80;1.60;;;17.60;99.90;;;;;;4979481;28;20221;-95
2023/08/04 02:58:47;;;;;;;2.10;1.65;;;17.60;99.90;;;;;;4983688;28;20211;-94
2023/08/04 03:01:14;;;;;;;4.63;1.70;;;17.50;99.90;;;;;;4975354;28;20200;-95
2023/08/04 03:03:41;;;;;;;4.43;1.75;;;17.50;99.90;;;;;;4982020;28;20207;-94
2023/08/04 03:06:10;;;;;;;4.93;1.70;;;17.60;99.90;;;;;;4976080;28;20204;-94
2023/08/04 03:08:37;;;;;;;1.83;1.58;;;17.60;99.90;;;;;;4977399;28;20227;-94
2023/08/04 03:11:08;;;;;;;3.13;1.63;;;17.70;99.90;;;;;;4975543;28;20299;-94
2023/08/04 03:13:35;;;;;;;4.95;1.73;;;17.70;99.90;;;;;;4967982;28;20218;-93
2023/08/04 03:16:02;;;;;;;1.92;1.65;;;17.80;99.90;;;;;;4954121;28;20304;-94
2023/08/04 03:18:29;;;;;;;4.05;1.65;;;17.80;99.90;;;;;;4966729;28;20192;-95
2023/08/04 03:20:56;;;;;;;2.28;1.45;;;17.80;75.90;;;;;;4964768;28;20263;-95
2023/08/04 03:23:24;;;;;;;4.15;1.80;;;17.80;1.00;;;;;;4959973;28;20707;-94
2023/08/04 03:25:51;;;;;;;2.45;1.73;;;17.90;1.00;;;;;;4969202;28;20267;-94
2023/08/04 03:28:18;;;;;;;2.25;1.70;;;17.90;1.00;;;;;;4967213;28;20196;-95
2023/08/04 03:30:45;;;;;;;3.25;1.70;;;17.90;1.00;;;;;;4966694;28;20208;-94
2023/08/04 03:33:11;;;;;;;5.15;2.03;;;18.00;1.00;;;;;;4959795;28;20204;-95
2023/08/04 03:35:38;;;;;;;2.97;1.90;;;17.90;1.00;;;;;;4965697;28;20203;-96
2023/08/04 03:38:05;;;;;;;4.28;1.63;;;18.00;1.00;;;;;;4964096;28;20212;-95
2023/08/04 03:40:33;;;;;;;3.67;1.90;;;18.00;1.00;;;;;;4973521;28;20208;-95
2023/08/04 03:43:00;;;;;;;4.07;1.73;;;18.00;1.00;;;;;;4965210;28;20219;-96
2023/08/04 03:45:27;;;;;;;3.58;1.70;;;18.10;1.00;;;;;;4973496;28;20211;-95
2023/08/04 03:47:54;;;;;;;3.25;1.80;;;18.10;1.00;;;;;;4964129;28;22661;-94
2023/08/04 03:50:22;;;;;;;7.70;2.10;;;18.10;1.00;;;;;;4962148;28;20205;-94
2023/08/04 03:52:49;;;;;;;3.55;1.88;;;18.10;1.00;;;;;;4971361;28;20219;-94
2023/08/04 03:55:16;;;;;;;5.60;1.90;;;18.10;1.00;;;;;;4962623;28;20206;-94
2023/08/04 03:57:44;;;;;;;2.90;1.92;;;18.20;1.00;;;;;;4965770;28;20243;-93
2023/08/04 04:00:11;;;;;;;3.55;1.90;;;18.20;1.00;;;;;;4962413;28;20284;-96
2023/08/04 04:02:38;;;;;;;3.10;2.08;;;18.20;1.00;;;;;;4959176;28;20201;-94
2023/08/04 04:05:05;;;;;;;4.53;2.08;;;18.20;1.00;;;;;;4963577;28;20230;-95
2023/08/04 04:07:32;;;;;;;2.95;1.80;;;18.20;1.00;;;;;;4972855;28;20232;-94
2023/08/04 04:09:59;;;;;;;2.63;2.00;;;18.20;1.00;;;;;;4976064;28;20647;-94
2023/08/04 04:12:26;;;;;;;7.38;2.20;;;18.30;99.90;;;;;;4976046;28;20208;-95
2023/08/04 04:14:54;;;;;;;4.68;2.13;;;18.30;99.90;;;;;;4976916;28;20203;-95
2023/08/04 04:17:21;;;;;;;3.30;2.20;;;18.30;99.90;;;;;;4979392;28;20331;-95
2023/08/04 04:19:48;;;;;;;2.17;1.52;;;18.40;99.90;;;;;;4980801;28;20201;-94
2023/08/04 04:22:15;;;;;;;3.88;2.10;;;18.40;99.90;;;;;;4981752;28;20210;-94
2023/08/04 04:24:42;;;;;;;2.13;1.90;;;18.40;99.90;;;;;;4969135;28;20575;-93
2023/08/04 04:27:08;;;;;;;3.30;2.10;;;18.40;99.90;;;;;;4976150;28;20562;-93
2023/08/04 04:29:36;;;;;;;3.08;2.15;;;18.50;99.90;;;;;;4977118;28;20204;-94
2023/08/04 04:32:04;;;;;;;7.00;2.42;;;18.50;99.90;;;;;;4975793;28;20203;-93
2023/08/04 04:34:31;;;;;;;2.75;2.10;;;18.50;99.90;;;;;;4981079;28;20218;-95
2023/08/04 04:36:58;;;;;;;5.28;2.40;;;18.50;60.30;;;;;;4974086;28;20303;-95
2023/08/04 04:39:26;;;;;;;3.85;2.38;;;18.50;82.90;;;;;;4975992;28;20207;-91
2023/08/04 04:41:53;;;;;;;3.03;2.35;;;18.40;99.90;;;;;;4977849;28;20223;-93
2023/08/04 04:44:20;;;;;;;3.35;2.55;;;18.40;99.90;;;;;;4975289;28;20230;-93
2023/08/04 04:46:47;;;;;;;2.88;2.20;;;18.50;99.90;;;;;;4975319;28;20329;-93
2023/08/04 04:49:16;;;;;;;2.88;2.20;;;18.50;99.90;;;;;;4977308;28;20204;-94
2023/08/04 04:51:43;;;;;;;5.85;2.30;;;18.60;99.90;;;;;;4975012;28;20242;-92
2023/08/04 04:54:10;;;;;;;5.00;2.33;;;18.60;99.90;;;;;;4983738;28;20230;-92
2023/08/04 04:56:37;;;;;;;5.63;2.40;;;18.60;95.50;;;;;;4980635;28;20207;-93
2023/08/04 04:59:04;;;;;;;3.28;2.33;;;18.70;8.40;;;;;;4978085;28;20192;-94
2023/08/04 05:01:31;;;;;;;3.08;2.65;;;18.70;1.00;;;;;;4984476;28;20573;-92
2023/08/04 05:03:58;;;;;;;4.07;2.33;;;18.70;1.00;;;;;;4974933;28;20211;-93
2023/08/04 05:06:26;;;;;;;4.05;2.53;;;18.80;1.00;;;;;;4983876;28;20206;-92
2023/08/04 05:08:53;;;;;;;4.35;2.47;;;18.80;1.00;;;;;;4979090;28;20242;-92
2023/08/04 05:11:20;;;;;;;7.43;2.78;;;18.90;1.00;;;;;;4978610;28;20187;-93
2023/08/04 05:13:46;;;;;;;5.28;2.65;;;18.90;1.00;;;;;;4980770;28;20199;-93
2023/08/04 05:16:13;;;;;;;5.72;2.80;;;19.00;1.00;;;;;;4970948;28;20206;-93
2023/08/04 05:18:40;;;;;;;6.32;3.17;;;19.00;1.00;;;;;;4972768;28;20680;-94
2023/08/04 05:21:07;;;;;;;6.75;3.25;;;19.00;1.00;;;;;;4972282;28;20203;-91
2023/08/04 05:23:35;;;;;;;4.57;2.72;;;19.10;1.00;;;;;;4986234;28;20196;-91
2023/08/04 05:26:02;;;;;;;5.93;3.10;;;19.10;1.00;;;;;;4984582;28;20200;-91
2023/08/04 05:28:32;;;;;;;5.45;2.90;;;19.20;1.00;;;;;;4984501;28;20229;-90
2023/08/04 05:31:00;;;;;;;3.28;2.80;;;19.20;1.00;;;;;;4972984;28;20246;-90
2023/08/04 05:33:28;;;;;;;3.53;2.70;;;19.20;99.90;;;;;;4979866;28;20209;-91
2023/08/04 05:35:55;;;;;;;5.72;3.10;;;19.10;1.00;;;;;;4983015;28;20270;-91
2023/08/04 05:38:22;;;;;;;5.75;3.20;;;19.10;1.00;;;;;;4975228;28;20873;-91
2023/08/04 05:40:51;;;;;;;4.80;2.97;;;19.00;1.00;;;;;;4965378;28;20290;-91
2023/08/04 05:43:18;;;;;;;5.25;3.15;;;19.00;1.00;;;;;;4979518;28;20202;-90
2023/08/04 05:45:48;;;;;;;7.68;3.05;;;19.00;1.00;;;;;;4979168;28;20578;-91
2023/08/04 05:48:15;;;;;;;3.70;3.25;;;19.00;1.00;;;;;;4988275;28;20191;-91
2023/08/04 05:50:41;;;;;;;3.88;3.00;;;19.00;1.00;;;;;;4985715;28;20213;-90
2023/08/04 05:53:08;;;;;;;5.55;3.17;;;19.00;1.00;;;;;;4987080;28;20281;-91
2023/08/04 05:55:36;;;;;;;10.10;5.10;;;19.00;1.00;;;;;;4979368;28;20199;-90
2023/08/04 05:58:05;;;;;;;4.82;3.13;;;19.10;1.00;;;;;;4978734;28;20218;-91
2023/08/04 06:00:31;;;;;;;7.68;3.40;;;19.00;1.00;;;;;;4975573;28;20569;-90
2023/08/04 06:02:58;;;;;;;5.47;3.75;;;19.10;1.00;;;;;;4976041;28;20207;-90
2023/08/04 06:05:25;;;;;;;6.88;3.60;;;19.10;1.00;;;;;;4981608;28;20206;-90
2023/08/04 06:07:53;;;;;;;9.20;3.60;;;19.20;1.00;;;;;;4975069;28;20230;-90
2023/08/04 06:10:19;;;;;;;15.85;5.65;;;19.30;1.00;;;;;;4977922;28;20208;-91
2023/08/04 06:12:47;;;;;;;7.80;3.97;;;19.40;1.00;;;;;;4980867;28;20286;-91
2023/08/04 06:15:16;;;;;;;4.28;3.40;;;19.50;1.00;;;;;;4984735;28;20207;-90
2023/08/04 06:17:44;;;;;;;8.75;3.72;;;19.70;1.00;;;;;;4974309;28;20691;-91
2023/08/04 06:20:11;;;;;;;4.78;3.20;;;19.80;1.00;;;;;;4971957;28;20639;-91
2023/08/04 06:22:38;;;;;;;5.70;3.47;;;19.90;99.90;;;;;;4968306;28;20214;-92
2023/08/04 06:25:06;;;;;;;5.03;3.33;;;20.10;99.90;;;;;;4974609;28;20285;-90
2023/08/04 06:27:33;;;;;;;9.75;3.53;;;20.10;1.00;;;;;;4969996;28;20282;-90
2023/08/04 06:30:00;;;;;;;6.20;3.20;;;20.20;1.00;;;;;;4973386;28;20648;-90
2023/08/04 06:32:29;;;;;;;4.43;3.13;;;20.30;1.00;;;;;;4979593;28;20705;-91
2023/08/04 06:34:55;;;;;;;23.27;12.15;;;20.50;99.90;;;;;;4973362;28;20196;-91
2023/08/04 06:37:22;;;;;;;7.75;4.72;;;20.60;99.90;;;;;;4974569;28;20219;-91
2023/08/04 06:39:50;;;;;;;7.35;3.55;;;20.80;73.00;;;;;;4976284;28;20208;-91
2023/08/04 06:42:17;;;;;;;11.05;7.15;;;21.00;1.00;;;;;;4976388;28;20569;-91
2023/08/04 06:44:44;;;;;;;15.02;9.60;;;21.20;1.00;;;;;;4980897;28;20200;-91
2023/08/04 06:47:11;;;;;;;6.43;3.72;;;21.40;99.90;;;;;;4975370;28;20215;-91
2023/08/04 06:49:40;;;;;;;10.75;6.45;;;21.60;99.90;;;;;;4978228;28;20199;-90
2023/08/04 06:52:08;;;;;;;24.65;14.90;;;21.80;1.00;;;;;;4970431;28;20331;-91
2023/08/04 06:54:35;;;;;;;5.90;3.40;;;22.20;1.00;;;;;;4978234;28;20200;-90
2023/08/04 06:57:01;;;;;;;6.65;4.85;;;22.50;99.90;;;;;;4975884;28;20200;-90
2023/08/04 06:59:28;;;;;;;5.78;3.10;;;22.70;1.00;;;;;;4977018;28;20580;-91
2023/08/04 07:01:55;;;;;;;4.82;3.22;;;22.80;99.90;;;;;;4982087;28;20210;-90
2023/08/04 07:04:22;;;;;;;6.82;3.67;;;22.80;71.80;;;;;;4983560;28;20690;-92
2023/08/04 07:06:50;;;;;;;3.47;2.90;;;22.70;45.60;;;;;;4973791;28;20294;-89
2023/08/04 07:09:17;;;;;;;4.18;3.60;;;22.70;1.00;;;;;;4975788;28;20224;-90
2023/08/04 07:11:44;;;;;;;3.80;2.20;;;22.70;1.00;;;;;;4972866;28;20195;-91
2023/08/04 07:14:10;;;;;;;4.30;2.80;;;22.70;1.00;;;;;;4974362;28;20219;-90
2023/08/04 07:16:37;;;;;;;3.60;2.50;;;22.70;1.00;;;;;;4973207;28;20210;-91
2023/08/04 07:19:04;;;;;;;7.25;3.05;;;22.70;1.00;;;;;;4975294;28;20221;-91
2023/08/04 07:21:31;;;;;;;5.72;2.47;;;22.60;1.00;;;;;;4975199;28;20282;-91
2023/08/04 07:23:59;;;;;;;4.60;3.72;;;22.50;1.00;;;;;;4978372;28;20279;-91
2023/08/04 07:26:27;;;;;;;4.35;3.50;;;22.50;1.00;;;;;;4981038;28;20202;-91
2023/08/04 07:28:54;;;;;;;4.80;2.53;;;22.50;1.00;;;;;;4981227;28;20594;-91
2023/08/04 07:31:21;;;;;;;5.10;2.70;;;22.50;99.90;;;;;;4974908;28;20262;-91
2023/08/04 07:33:48;;;;;;;3.42;2.25;;;22.50;99.90;;;;;;4975511;28;20211;-91
2023/08/04 07:36:15;;;;;;;5.15;2.55;;;22.40;99.90;;;;;;4971843;28;20206;-91
2023/08/04 07:38:42;;;;;;;5.55;2.85;;;22.40;99.90;;;;;;4976821;28;20653;-90
2023/08/04 07:41:17;;;;;;;3.42;2.45;;;22.40;99.90;;;;;;4990409;28;20204;-90
2023/08/04 07:43:44;;;;;;;5.07;2.50;;;22.50;1.00;;;;;;4975038;28;20211;-91
2023/08/04 07:46:14;;;;;;;6.72;2.75;;;22.50;1.00;;;;;;4980866;28;20207;-91
2023/08/04 07:48:41;;;;;;;5.95;2.50;;;22.70;1.00;;;;;;4974862;28;20200;-91
2023/08/04 07:51:07;;;;;;;4.13;2.65;;;23.00;1.00;;;;;;4986211;28;20211;-91
2023/08/04 07:53:34;;;;;;;5.85;2.80;;;23.20;1.00;;;;;;4983800;28;20204;-91
2023/08/04 07:56:01;;;;;;;6.40;2.80;;;23.20;1.00;;;;;;4979374;28;20202;-91
2023/08/04 07:58:29;;;;;;;7.32;2.63;;;23.20;1.00;;;;;;4990068;28;20231;-92
2023/08/04 08:00:56;;;;;;;4.10;2.92;;;23.30;1.00;;;;;;4987808;28;20589;-91
2023/08/04 08:03:23;;;;;;;7.60;2.63;;;23.40;1.00;;;;;;4983775;28;20200;-91
2023/08/04 08:05:50;;;;;;;9.15;2.40;;;23.50;99.90;;;;;;4981600;28;20199;-91
2023/08/04 08:08:18;;;;;;;5.60;2.45;;;23.60;1.00;;;;;;4985486;28;20230;-91
2023/08/04 08:10:45;;;;;;;3.65;2.53;;;23.60;1.00;;;;;;4975562;28;20208;-92
2023/08/04 08:13:12;;;;;;;6.90;3.22;;;23.60;1.00;;;;;;4976141;28;20204;-90
2023/08/04 08:15:40;;;;;;;5.55;3.70;;;23.70;1.00;;;;;;4976311;28;20199;-90
2023/08/04 08:18:07;;;;;;;5.43;3.05;;;23.90;1.00;;;;;;4977148;28;20610;-91
2023/08/04 08:20:34;;;;;;;7.88;2.75;;;24.00;99.90;;;;;;4981140;28;20207;-91
2023/08/04 08:23:02;;;;;;;7.20;2.83;;;23.80;99.90;;;;;;4979641;28;20286;-91
2023/08/04 08:25:29;;;;;;;4.82;2.50;;;23.90;99.90;;;;;;4973088;28;20257;-92
2023/08/04 08:27:56;;;;;;;4.60;2.22;;;24.00;99.90;;;;;;4978843;28;20293;-93
2023/08/04 08:30:23;;;;;;;4.00;2.25;;;24.10;99.90;;;;;;4978531;28;20200;-91
2023/08/04 08:32:51;;;;;;;5.38;2.35;;;24.10;99.90;;;;;;4977447;28;20218;-92
2023/08/04 08:35:18;;;;;;;3.97;2.20;;;23.90;99.90;;;;;;4990091;28;20192;-91
2023/08/04 08:37:45;;;;;;;14.02;10.60;;;23.80;99.90;;;;;;4971468;28;20203;-92
2023/08/04 08:40:12;;;;;;;3.95;2.20;;;24.00;99.90;;;;;;4974264;28;20290;-92
2023/08/04 08:42:39;;;;;;;3.17;2.00;;;24.30;99.90;;;;;;4983609;28;20199;-91
2023/08/04 08:45:07;;;;;;;9.30;2.70;;;24.40;40.40;;;;;;4971629;28;20208;-92
2023/08/04 08:47:35;;;;;;;3.28;2.03;;;24.40;92.10;;;;;;4980378;28;20191;-92
2023/08/04 08:50:06;;;;;;;4.50;2.53;;;24.40;1.00;;;;;;4978155;28;20234;-92
2023/08/04 08:52:37;;;;;;;3.47;2.35;;;24.10;1.00;;;;;;4980090;28;20209;-92
2023/08/04 08:55:06;;;;;;;4.88;2.40;;;23.80;1.00;;;;;;4982205;28;20218;-91
2023/08/04 08:57:33;;;;;;;5.38;2.40;;;23.60;15.60;;;;;;4977096;28;20200;-91
2023/08/04 09:00:00;;;;;;;3.65;2.33;;;23.60;99.90;;;;;;4972953;28;20227;-91
2023/08/04 09:02:27;;;;;;;4.03;1.83;;;23.70;99.90;;;;;;4987642;28;20554;-91
2023/08/04 09:04:54;;;;;;;6.00;2.05;;;23.80;60.70;;;;;;4979587;28;20196;-92
2023/08/04 09:07:24;;;;;;;4.63;2.15;;;23.70;34.70;;;;;;4991185;28;20200;-92
2023/08/04 09:09:51;;;;;;;5.10;3.00;;;23.70;1.00;;;;;;4980165;28;20231;-92
2023/08/04 09:12:18;;;;;;;4.15;3.05;;;23.70;1.00;;;;;;4987080;28;20203;-92
2023/08/04 09:14:49;;;;;;;3.95;2.30;;;23.70;1.00;;;;;;4976168;28;20226;-93
2023/08/04 09:17:30;;;;;;;4.18;2.35;;;23.70;1.00;;;;;;4976243;28;20266;-92
2023/08/04 09:19:57;;;;;;;2.80;2.10;;;24.00;99.90;;;;;;4977787;28;20215;-92
2023/08/04 09:22:26;;;;;;;6.22;2.35;;;24.40;1.00;;;;;;4983472;28;20599;-93
2023/08/04 09:24:54;;;;;;;6.80;2.30;;;24.90;1.00;;;;;;4975192;28;20234;-92
2023/08/04 09:27:31;;;;;;;2.85;2.10;;;25.00;1.00;;;;;;4978517;28;20196;-93
2023/08/04 09:30:00;;;;;;;5.28;2.13;;;24.70;1.00;;;;;;4972535;28;20209;-92
2023/08/04 09:32:27;;;;;;;6.65;2.47;;;24.10;1.00;;;;;;4981082;28;20203;-91
2023/08/04 09:35:00;;;;;;;4.70;2.10;;;23.60;1.00;;;;;;4974753;28;20204;-92
2023/08/04 09:37:30;;;;;;;15.27;5.82;;;23.40;1.00;;;;;;4976689;28;20203;-91
2023/08/04 09:39:58;;;;;;;10.68;3.40;;;23.10;1.00;;;;;;4967791;28;20219;-91
2023/08/04 09:42:25;;;;;;;8.55;2.95;;;22.90;52.30;;;;;;4979690;28;20201;-93
2023/08/04 09:44:53;;;;;;;11.75;3.08;;;22.70;99.90;;;;;;4976739;28;20196;-93
2023/08/04 09:47:23;;;;;;;3.35;2.40;;;22.70;99.90;;;;;;4984598;28;20199;-92
2023/08/04 09:49:50;;;;;;;5.03;2.72;;;23.10;99.90;;;;;;4981958;28;20204;-92
2023/08/04 09:52:23;;;;;;;3.55;2.10;;;23.60;99.90;;;;;;4977440;28;20202;-93
2023/08/04 09:54:53;;;;;;;4.90;1.90;;;24.20;3.40;;;;;;4982433;28;20297;-92
2023/08/04 09:57:22;;;;;;;6.35;2.20;;;24.40;1.00;;;;;;4978176;28;20206;-92
2023/08/04 09:59:49;;;;;;;9.15;2.30;;;24.40;1.00;;;;;;4983127;28;20227;-92
2023/08/04 10:02:18;;;;;;;4.82;1.90;;;24.20;1.00;;;;;;4986137;28;20196;-93
2023/08/04 10:04:49;;;;;;;3.20;1.60;;;23.90;1.00;;;;;;4972590;28;20266;-91
2023/08/04 10:07:16;;;;;;;5.80;1.50;;;23.70;1.00;;;;;;4982906;28;20207;-92
2023/08/04 10:09:44;;;;;;;2.42;1.27;;;23.60;1.00;;;;;;4987206;28;20227;-92
2023/08/04 10:12:13;;;;;;;3.65;1.77;;;23.70;1.00;;;;;;4969293;28;20204;-92
2023/08/04 10:14:40;;;;;;;3.13;1.52;;;23.90;1.00;;;;;;4977339;28;20207;-92
2023/08/04 10:17:08;;;;;;;6.13;1.50;;;24.00;1.00;;;;;;4976698;28;20287;-93
2023/08/04 10:19:35;;;;;;;2.28;1.50;;;24.30;1.00;;;;;;4967795;28;20226;-92
2023/08/04 10:22:08;;;;;;;4.35;1.50;;;24.50;1.00;;;;;;4976274;28;20198;-93
2023/08/04 10:24:36;;;;;;;2.28;1.30;;;24.50;1.00;;;;;;4973389;28;20204;-92
2023/08/04 10:27:15;;;;;;;2.40;1.58;;;24.40;1.00;;;;;;4983744;28;20207;-92
2023/08/04 10:29:42;;;;;;;3.13;1.73;;;24.30;1.00;;;;;;4978207;28;20281;-93
2023/08/04 10:32:10;;;;;;;3.13;1.80;;;24.30;1.00;;;;;;4974942;28;20204;-93
2023/08/04 10:34:41;;;;;;;2.88;1.80;;;24.40;1.00;;;;;;4977280;28;20214;-93
2023/08/04 10:37:14;;;;;;;3.38;1.92;;;24.60;1.00;;;;;;4977746;28;20214;-93
2023/08/04 10:39:43;;;;;;;4.57;1.83;;;24.80;1.00;;;;;;4977523;28;20287;-93
2023/08/04 10:42:23;;;;;;;2.85;1.73;;;24.80;1.00;;;;;;4976020;28;20199;-94
2023/08/04 10:44:53;;;;;;;3.83;1.80;;;24.60;1.00;;;;;;4974486;28;20209;-92
2023/08/04 10:47:31;;;;;;;3.78;1.98;;;24.30;1.00;;;;;;4976839;28;20211;-92
2023/08/04 10:49:59;;;;;;;4.82;1.90;;;24.00;1.00;;;;;;4974224;28;20262;-92
2023/08/04 10:52:26;;;;;;;2.72;1.60;;;24.00;1.00;;;;;;4977392;28;20299;-93
2023/08/04 10:54:53;;;;;;;2.58;1.50;;;24.10;1.00;;;;;;4975727;28;20231;-93
2023/08/04 10:57:23;;;;;;;2.85;1.50;;;24.30;1.00;;;;;;4976909;28;20202;-92
2023/08/04 10:59:50;;;;;;;3.25;1.80;;;24.30;1.00;;;;;;4978184;28;20226;-93
2023/08/04 11:02:19;;;;;;;2.63;1.70;;;24.50;1.00;;;;;;4975881;28;20624;-92
2023/08/04 11:04:47;;;;;;;4.25;2.10;;;24.80;1.00;;;;;;4977571;28;20238;-92
2023/08/04 11:07:15;;;;;;;1.83;1.60;;;25.30;1.00;;;;;;4976357;28;20652;-92
2023/08/04 11:09:42;;;;;;;2.28;1.38;;;25.80;1.00;;;;;;4976588;28;20231;-92
2023/08/04 11:12:09;;;;;;;4.38;1.20;;;26.00;99.90;;;;;;4977406;28;20265;-92
2023/08/04 11:14:38;;;;;;;2.53;1.30;;;25.70;99.90;;;;;;4978673;28;20684;-92
2023/08/04 11:17:12;;;;;;;2.42;1.40;;;25.40;99.90;;;;;;4986830;28;20199;-93
2023/08/04 11:19:39;;;;;;;2.63;1.30;;;25.60;99.90;;;;;;4978027;28;20216;-93
2023/08/04 11:22:09;;;;;;;1.42;1.10;;;26.00;99.90;;;;;;4976775;28;20192;-93
2023/08/04 11:24:36;;;;;;;5.50;1.60;;;26.30;99.90;;;;;;4976788;28;20207;-93
2023/08/04 11:27:02;;;;;;;3.00;1.38;;;26.20;99.90;;;;;;4976842;28;20207;-93
2023/08/04 11:29:29;;;;;;;2.85;1.50;;;25.90;99.90;;;;;;4984128;28;20195;-92
2023/08/04 11:31:57;;;;;;;1.80;1.13;;;25.80;99.90;;;;;;4977855;28;20429;-92
2023/08/04 11:34:24;;;;;;;2.97;1.20;;;25.80;99.90;;;;;;4985027;28;20202;-92
2023/08/04 11:36:51;;;;;;;3.20;1.48;;;25.70;99.90;;;;;;4978045;28;20307;-92
2023/08/04 11:39:18;;;;;;;2.97;1.30;;;25.40;99.90;;;;;;4976792;28;20225;-92
2023/08/04 11:41:45;;;;;;;2.70;1.48;;;25.10;99.90;;;;;;4977918;28;20200;-91
2023/08/04 11:44:14;;;;;;;2.55;1.30;;;24.80;99.90;;;;;;4979159;28;20280;-92
2023/08/04 11:46:41;;;;;;;2.08;1.50;;;24.60;99.90;;;;;;4975539;28;20207;-91
2023/08/04 11:49:10;;;;;;;1.90;1.45;;;24.20;99.90;;;;;;4977195;28;20205;-92
2023/08/04 11:51:42;;;;;;;2.83;1.60;;;24.00;99.90;;;;;;4978002;28;20209;-92
2023/08/04 11:54:17;;;;;;;5.82;1.65;;;23.90;99.90;;;;;;4976801;28;20270;-92
2023/08/04 11:56:44;;;;;;;2.97;1.50;;;23.90;99.90;;;;;;4978299;28;20203;-91
2023/08/04 11:59:11;;;;;;;2.17;1.58;;;24.10;99.90;;;;;;4979868;28;20222;-92
2023/08/04 12:01:38;;;;;;;4.82;1.75;;;24.20;99.90;;;;;;4974207;28;20204;-91
2023/08/04 12:04:22;;;;;;;3.58;1.60;;;24.30;99.90;;;;;;4972553;28;20644;-92
2023/08/04 12:06:58;;;;;;;3.42;1.90;;;24.40;99.90;;;;;;4982196;28;20207;-93
2023/08/04 12:09:25;;;;;;;3.05;1.60;;;24.70;99.90;;;;;;4978082;28;20239;-93
2023/08/04 12:11:52;;;;;;;1.95;1.50;;;24.70;99.90;;;;;;4976823;28;20198;-92
2023/08/04 12:14:19;;;;;;;4.85;1.50;;;24.60;99.90;;;;;;4977451;28;20561;-92
2023/08/04 12:16:54;;;;;;;2.15;1.50;;;24.40;99.90;;;;;;4977220;28;20208;-92
2023/08/04 12:19:24;;;;;;;2.45;1.60;;;24.20;99.90;;;;;;4970893;28;20226;-92
2023/08/04 12:21:52;;;;;;;2.35;1.80;;;24.10;99.90;;;;;;4976725;28;20196;-92
2023/08/04 12:24:19;;;;;;;3.42;1.77;;;24.10;99.90;;;;;;4976775;28;20204;-91
2023/08/04 12:26:46;;;;;;;2.83;1.73;;;24.00;99.90;;;;;;4982269;28;20201;-91
2023/08/04 12:29:13;;;;;;;3.58;1.85;;;23.90;99.90;;;;;;4975464;28;20199;-92
2023/08/04 12:31:40;;;;;;;3.58;1.90;;;23.90;99.90;;;;;;4980864;28;20643;-91
2023/08/04 12:34:09;;;;;;;5.05;2.20;;;23.80;99.90;;;;;;4976912;28;20199;-91
2023/08/04 12:36:37;;;;;;;6.10;2.60;;;23.80;99.90;;;;;;4974588;28;20553;-91
2023/08/04 12:39:05;;;;;;;2.60;1.90;;;24.10;99.90;;;;;;4980860;28;20656;-91
2023/08/04 12:41:31;;;;;;;4.20;2.00;;;24.50;99.90;;;;;;4983810;28;20290;-92
2023/08/04 12:43:58;;;;;;;2.72;1.83;;;25.00;99.90;;;;;;4972532;28;20203;-92
2023/08/04 12:46:26;;;;;;;7.18;1.70;;;25.70;99.90;;;;;;4976057;28;20250;-92
2023/08/04 12:48:53;;;;;;;4.20;1.40;;;26.40;99.90;;;;;;4971691;28;20250;-92
2023/08/04 12:51:21;;;;;;;12.07;1.88;;;27.00;99.90;;;;;;4975924;28;20232;-92
2023/08/04 12:53:49;;;;;;;7.13;2.17;;;27.10;99.90;;;;;;4988215;28;21056;-92
2023/08/04 12:56:17;;;;;;;3.28;1.52;;;27.10;99.90;;;;;;4976552;28;20282;-92